Terminal Aerodrome Forecast
Issued by NWS

Home | Current Version | Previous Version | Text Only | Print | Product List | Glossary Off
Versions: 1 2 3 4 5 6 7 8 9 10 11 12 13 14 15 16 17 18 19 20 21 22 23 24 25 26 27 28 29

000
FTUS42 KMHX 040545
TAFOAJ
TAF
KOAJ 040545Z 0406/0506 23003KT 3SM BR VCSH BKN005
     FM040700 00000KT 5SM BR VCSH SCT005 BKN015
     FM041600 25007KT P6SM BKN040
     FM041800 25007KT P6SM SCT040
     FM050000 00000KT P6SM SCT250
      AMD LTD TO CLD VIS AND WIND=

USA.gov is the U.S. government's official web portal to all federal, state and local government web resources and services.